createdAt,value
2022-10-07T00:01:09.057Z,77.19
2022-10-07T00:03:40.178Z,77.64
2022-10-07T00:06:16.408Z,77.26
2022-10-07T00:08:49.154Z,77.31
2022-10-07T00:11:22.517Z,77.33
2022-10-07T00:13:56.177Z,77.94
2022-10-07T00:16:30.040Z,77.82
2022-10-07T00:19:02.888Z,77.96
2022-10-07T00:21:35.463Z,78.08
2022-10-07T00:24:07.102Z,78.06
2022-10-07T00:26:38.364Z,77.81
2022-10-07T00:29:09.711Z,78.16
2022-10-07T00:31:41.611Z,78.33
2022-10-07T00:34:12.688Z,78.43
2022-10-07T00:36:43.565Z,78.29
2022-10-07T00:39:15.887Z,78.15
2022-10-07T00:41:51.822Z,78.08
2022-10-07T00:44:35.412Z,77.52
2022-10-07T00:47:11.736Z,78.26
2022-10-07T00:49:45.265Z,78.32
2022-10-07T00:52:17.195Z,78.41
2022-10-07T00:54:52.344Z,77.93
2022-10-07T00:57:26.083Z,78.13
2022-10-07T00:59:57.389Z,77.91
2022-10-07T01:02:28.355Z,77.74
2022-10-07T01:05:00.751Z,78.01
2022-10-07T01:07:31.932Z,77.81
2022-10-07T01:10:03.659Z,77.68
2022-10-07T01:12:49.110Z,77.72
2022-10-07T01:15:31.355Z,78.44
2022-10-07T01:18:07.785Z,78.44
2022-10-07T01:20:57.971Z,78.61
2022-10-07T01:23:49.384Z,78.51
2022-10-07T01:26:28.413Z,78.32
2022-10-07T01:29:13.814Z,78.54
2022-10-07T01:31:47.231Z,78.42
2022-10-07T01:34:19.762Z,78.12
2022-10-07T01:36:52.622Z,78.36
2022-10-07T01:39:26.083Z,78.34
2022-10-07T01:41:57.489Z,78.60
2022-10-07T01:44:31.463Z,78.33
2022-10-07T01:47:01.986Z,78.32
2022-10-07T01:49:32.286Z,78.19
2022-10-07T01:52:26.296Z,78.62
2022-10-07T01:55:15.212Z,78.68
2022-10-07T01:57:51.416Z,78.85
2022-10-07T02:00:22.704Z,79.05
2022-10-07T02:03:07.603Z,78.46
2022-10-07T02:05:41.109Z,78.77
2022-10-07T02:08:15.038Z,78.66
2022-10-07T02:10:51.241Z,79.22
2022-10-07T02:13:45.652Z,79.30
2022-10-07T02:16:21.756Z,79.17
2022-10-07T02:18:54.432Z,79.24
2022-10-07T02:21:28.317Z,79.13
2022-10-07T02:24:00.861Z,78.92
2022-10-07T02:26:33.886Z,79.32
2022-10-07T02:29:07.713Z,79.57
2022-10-07T02:31:41.457Z,78.80
2022-10-07T02:34:19.543Z,78.67
2022-10-07T02:36:52.631Z,78.67
2022-10-07T02:39:23.005Z,79.12
2022-10-07T02:42:13.940Z,79.04
2022-10-07T02:44:47.403Z,78.92
2022-10-07T02:47:28.241Z,78.66
2022-10-07T02:50:02.032Z,79.26
2022-10-07T02:52:34.344Z,79.10
2022-10-07T02:55:07.780Z,79.04
2022-10-07T02:57:41.750Z,79.09
2022-10-07T03:00:13.476Z,79.22
2022-10-07T03:02:49.579Z,78.76
2022-10-07T03:05:21.617Z,79.36
2022-10-07T03:08:06.421Z,79.07
2022-10-07T03:10:37.070Z,79.33
2022-10-07T03:13:07.734Z,79.48
2022-10-07T03:15:42.564Z,78.85
2022-10-07T03:18:13.935Z,78.76
2022-10-07T03:20:44.313Z,78.90
2022-10-07T03:23:14.807Z,79.23
2022-10-07T03:25:46.880Z,79.34
2022-10-07T03:28:17.130Z,79.41
2022-10-07T03:30:48.595Z,79.66
2022-10-07T03:33:21.365Z,79.67
2022-10-07T03:35:52.002Z,79.81
2022-10-07T03:38:22.720Z,80.08
2022-10-07T03:40:53.386Z,80.00
2022-10-07T03:43:25.051Z,80.04
2022-10-07T03:45:56.937Z,79.99
2022-10-07T03:48:27.309Z,79.99
2022-10-07T03:50:58.277Z,80.49
2022-10-07T03:53:29.775Z,80.20
2022-10-07T03:56:00.171Z,80.46
2022-10-07T03:58:30.858Z,80.08
2022-10-07T04:01:13.328Z,79.90
2022-10-07T04:03:43.907Z,80.07
2022-10-07T04:06:14.746Z,79.85
2022-10-07T04:08:45.245Z,80.03
2022-10-07T04:11:15.694Z,80.06
2022-10-07T04:13:46.098Z,80.00
2022-10-07T04:16:16.639Z,79.73
2022-10-07T04:18:47.292Z,80.04
2022-10-07T04:21:17.606Z,79.99
2022-10-07T04:23:47.917Z,80.04
2022-10-07T04:26:18.298Z,79.99
2022-10-07T04:28:49.213Z,80.14
2022-10-07T04:31:20.468Z,80.36
2022-10-07T04:33:51.200Z,80.27
2022-10-07T04:36:21.616Z,80.15
2022-10-07T04:38:52.041Z,80.39
2022-10-07T04:41:22.364Z,80.48
2022-10-07T04:43:57.655Z,80.46
2022-10-07T04:46:25.402Z,80.59
2022-10-07T04:48:56.132Z,80.54
2022-10-07T04:51:26.438Z,80.54
2022-10-07T04:53:57.330Z,80.39
2022-10-07T04:56:28.584Z,80.66
2022-10-07T04:58:58.975Z,80.48
2022-10-07T05:01:29.395Z,80.79
2022-10-07T05:04:00.290Z,80.85
2022-10-07T05:06:30.636Z,80.58
2022-10-07T05:09:00.929Z,80.80
2022-10-07T05:11:31.249Z,81.17
2022-10-07T05:14:02.041Z,81.08
2022-10-07T05:16:32.344Z,81.45
2022-10-07T05:19:02.845Z,81.15
2022-10-07T05:21:33.728Z,81.19
2022-10-07T05:24:04.221Z,81.20
2022-10-07T05:26:34.573Z,81.42
2022-10-07T05:29:06.918Z,81.43
2022-10-07T05:31:37.506Z,81.34
2022-10-07T05:34:08.128Z,81.21
2022-10-07T05:36:38.771Z,81.39
2022-10-07T05:39:10.180Z,80.99
2022-10-07T05:41:45.747Z,81.11
2022-10-07T05:44:13.089Z,81.50
2022-10-07T05:46:43.414Z,81.26
2022-10-07T05:49:13.758Z,81.12
2022-10-07T05:51:44.055Z,80.97
2022-10-07T05:54:14.362Z,80.98
2022-10-07T05:56:45.024Z,80.95
2022-10-07T05:59:15.542Z,81.14
2022-10-07T06:01:45.888Z,81.49
2022-10-07T06:04:16.267Z,81.41
2022-10-07T06:06:46.896Z,80.98
2022-10-07T06:09:35.223Z,81.17
2022-10-07T06:12:23.708Z,81.39
2022-10-07T06:14:54.102Z,81.40
2022-10-07T06:17:24.456Z,81.31
2022-10-07T06:19:54.841Z,80.94
2022-10-07T06:22:25.193Z,81.26
2022-10-07T06:24:57.073Z,81.10
2022-10-07T06:27:27.629Z,81.26
2022-10-07T06:29:58.124Z,81.22
2022-10-07T06:32:32.484Z,80.81
2022-10-07T06:35:02.865Z,80.94
2022-10-07T06:37:33.458Z,80.76
2022-10-07T06:40:04.029Z,80.74
2022-10-07T06:42:34.421Z,80.65
2022-10-07T06:45:04.803Z,80.43
2022-10-07T06:47:35.020Z,80.36
2022-10-07T06:50:05.943Z,80.11
2022-10-07T06:52:38.924Z,79.88
2022-10-07T06:55:08.848Z,79.61
2022-10-07T06:57:46.788Z,79.73
2022-10-07T07:00:12.242Z,79.36
2022-10-07T07:02:42.681Z,79.00
2022-10-07T07:05:15.498Z,78.83
2022-10-07T07:07:46.035Z,78.90
2022-10-07T07:10:16.615Z,78.69
2022-10-07T07:12:47.269Z,78.70
2022-10-07T07:15:17.964Z,78.52
2022-10-07T07:17:49.014Z,78.67
2022-10-07T07:20:19.649Z,78.70
2022-10-07T07:22:51.686Z,77.44
2022-10-07T07:25:22.414Z,77.72
2022-10-07T07:27:57.630Z,77.04
2022-10-07T07:30:24.853Z,76.48
2022-10-07T07:32:55.523Z,76.79
2022-10-07T07:35:31.418Z,76.33
2022-10-07T07:38:02.041Z,75.97
2022-10-07T07:40:32.367Z,75.45
2022-10-07T07:43:03.470Z,75.91
2022-10-07T07:45:37.923Z,75.13
2022-10-07T07:48:08.310Z,74.50
2022-10-07T07:50:40.901Z,74.39
2022-10-07T07:53:11.284Z,74.53
2022-10-07T07:55:43.622Z,73.98
2022-10-07T07:58:14.108Z,74.84
2022-10-07T08:00:44.438Z,73.67
2022-10-07T08:03:14.925Z,74.40
2022-10-07T08:05:45.339Z,73.55
2022-10-07T08:08:15.729Z,72.63
2022-10-07T08:10:49.692Z,72.56
2022-10-07T08:13:18.235Z,72.21
2022-10-07T08:15:48.972Z,71.76
2022-10-07T08:18:20.014Z,71.65
2022-10-07T08:21:01.460Z,70.79
2022-10-07T08:23:32.598Z,70.82
2022-10-07T08:26:04.065Z,70.44
2022-10-07T08:28:35.243Z,69.73
2022-10-07T08:31:07.790Z,69.36
2022-10-07T08:33:40.661Z,70.10
2022-10-07T08:36:14.161Z,68.72
2022-10-07T08:38:48.439Z,68.91
2022-10-07T08:41:21.904Z,69.23
2022-10-07T08:43:53.043Z,67.99
2022-10-07T08:46:26.611Z,68.90
2022-10-07T08:49:05.915Z,68.36
2022-10-07T08:51:57.799Z,67.33
2022-10-07T08:54:33.262Z,66.77
2022-10-07T08:57:09.621Z,66.30
2022-10-07T08:59:43.002Z,65.53
2022-10-07T09:02:25.707Z,65.57
2022-10-07T09:05:17.142Z,65.67
2022-10-07T09:07:56.308Z,64.92
2022-10-07T09:10:39.131Z,64.85
2022-10-07T09:13:15.942Z,63.25
2022-10-07T09:16:05.938Z,62.63
2022-10-07T09:18:42.720Z,62.15
2022-10-07T09:21:25.554Z,62.43
2022-10-07T09:24:15.257Z,60.96
2022-10-07T09:26:45.686Z,59.24
2022-10-07T09:29:18.988Z,57.98
2022-10-07T09:31:51.789Z,57.43
2022-10-07T09:34:27.532Z,56.15
2022-10-07T09:37:21.900Z,55.46
2022-10-07T09:39:55.097Z,54.58
2022-10-07T09:42:43.243Z,51.85
2022-10-07T09:45:31.652Z,53.34
2022-10-07T09:48:11.076Z,52.64
2022-10-07T09:50:43.387Z,53.91
2022-10-07T09:53:25.849Z,54.93
2022-10-07T09:55:56.216Z,51.56
2022-10-07T09:58:28.472Z,51.31
2022-10-07T10:01:00.787Z,52.00
2022-10-07T10:03:34.349Z,53.11
2022-10-07T10:06:09.722Z,54.78
2022-10-07T10:08:43.124Z,54.75
2022-10-07T10:11:22.604Z,55.94
2022-10-07T10:13:53.442Z,55.81
2022-10-07T10:16:29.721Z,55.68
2022-10-07T10:19:05.239Z,56.08
2022-10-07T10:21:42.607Z,56.15
2022-10-07T10:24:17.439Z,56.12
2022-10-07T10:27:03.708Z,56.19
2022-10-07T10:29:55.406Z,55.03
2022-10-07T10:32:28.869Z,56.03
2022-10-07T10:35:12.733Z,54.96
2022-10-07T10:37:48.909Z,54.91
2022-10-07T10:40:25.274Z,55.04
2022-10-07T10:43:17.043Z,54.83
2022-10-07T10:46:05.278Z,54.83
2022-10-07T10:48:47.694Z,53.21
2022-10-07T10:51:37.643Z,53.65
2022-10-07T10:54:32.427Z,51.98
2022-10-07T10:57:05.825Z,51.88
2022-10-07T10:59:48.104Z,52.31
2022-10-07T11:02:28.809Z,52.17
2022-10-07T11:05:07.886Z,51.89
2022-10-07T11:07:44.334Z,51.00
2022-10-07T11:10:20.566Z,50.87
2022-10-07T11:12:56.037Z,51.50
2022-10-07T11:15:35.526Z,52.15
2022-10-07T11:18:08.973Z,52.94
2022-10-07T11:20:46.605Z,50.41
2022-10-07T11:23:42.863Z,51.12
2022-10-07T11:26:16.312Z,50.53
2022-10-07T11:28:49.533Z,49.08
2022-10-07T11:31:30.748Z,45.91
2022-10-07T11:34:31.162Z,43.33
2022-10-07T11:37:16.246Z,39.68
2022-10-07T11:42:29.642Z,35.15
2022-10-07T11:45:06.035Z,33.38
2022-10-07T11:47:42.115Z,34.24
2022-10-07T11:50:24.439Z,34.20
2022-10-07T11:52:57.898Z,34.89
2022-10-07T11:55:36.788Z,34.49
2022-10-07T11:58:10.332Z,35.53
2022-10-07T12:00:40.797Z,35.26
2022-10-07T12:03:19.996Z,37.51
2022-10-07T12:05:53.522Z,39.54
2022-10-07T12:08:38.546Z,40.84
2022-10-07T12:11:17.705Z,45.27
2022-10-07T12:13:50.779Z,46.10
2022-10-07T12:16:33.544Z,47.28
2022-10-07T12:19:11.425Z,47.40
2022-10-07T12:22:03.550Z,48.39
2022-10-07T12:24:36.463Z,48.62
2022-10-07T12:27:18.496Z,48.92
2022-10-07T12:30:09.128Z,50.82
2022-10-07T12:32:56.086Z,49.31
2022-10-07T12:35:36.099Z,50.07
2022-10-07T12:38:18.364Z,49.54
2022-10-07T12:40:56.916Z,49.76
2022-10-07T12:43:39.136Z,50.69
2022-10-07T12:46:13.564Z,50.00
2022-10-07T12:48:50.181Z,50.02
2022-10-07T12:51:23.700Z,50.20
2022-10-07T12:53:56.293Z,50.43
2022-10-07T12:56:30.033Z,51.15
2022-10-07T12:59:42.479Z,51.17
2022-10-07T13:02:33.761Z,51.69
2022-10-07T13:05:16.023Z,51.47
2022-10-07T13:07:58.367Z,51.28
2022-10-07T13:10:31.846Z,51.21
2022-10-07T13:13:23.347Z,51.46
2022-10-07T13:16:31.991Z,51.02
2022-10-07T13:19:21.881Z,51.11
2022-10-07T13:22:12.423Z,51.69
2022-10-07T13:24:52.040Z,51.75
2022-10-07T13:27:31.329Z,51.43
2022-10-07T13:30:04.071Z,51.54
2022-10-07T13:32:36.715Z,51.63
2022-10-07T13:35:22.424Z,50.93
2022-10-07T13:37:52.814Z,51.28
2022-10-07T13:40:30.324Z,50.43
2022-10-07T13:43:04.110Z,51.07
2022-10-07T13:45:44.090Z,49.68
2022-10-07T13:48:19.674Z,49.86
2022-10-07T13:50:52.007Z,49.67
2022-10-07T13:53:25.607Z,49.44
2022-10-07T13:56:07.811Z,49.56
2022-10-07T13:58:38.442Z,48.77
2022-10-07T14:01:09.176Z,49.18
2022-10-07T14:04:05.412Z,50.62
2022-10-07T14:06:41.648Z,49.38
2022-10-07T14:09:40.255Z,49.95
2022-10-07T14:12:16.689Z,48.77
2022-10-07T14:14:50.283Z,48.43
2022-10-07T14:17:29.554Z,49.55
2022-10-07T14:20:04.299Z,50.56
2022-10-07T14:22:41.052Z,48.81
2022-10-07T14:25:20.398Z,48.77
2022-10-07T14:27:53.904Z,49.02
2022-10-07T14:30:59.627Z,49.40
2022-10-07T14:34:02.841Z,49.34
2022-10-07T14:36:34.789Z,48.77
2022-10-07T14:39:25.869Z,49.60
2022-10-07T14:41:56.424Z,49.37
2022-10-07T14:44:27.009Z,49.19
2022-10-07T14:47:13.029Z,49.46
2022-10-07T14:49:43.355Z,50.28
2022-10-07T14:52:17.140Z,50.56
2022-10-07T14:54:48.905Z,49.36
2022-10-07T14:57:19.220Z,49.24
2022-10-07T14:59:50.090Z,49.41
2022-10-07T15:02:20.653Z,49.69
2022-10-07T15:04:51.121Z,49.84
2022-10-07T15:07:21.678Z,49.79
2022-10-07T15:09:52.024Z,50.62
2022-10-07T15:12:22.502Z,49.58
2022-10-07T15:14:52.843Z,50.28
2022-10-07T15:17:23.916Z,50.48
2022-10-07T15:19:54.396Z,50.54
2022-10-07T15:22:24.843Z,50.23
2022-10-07T15:24:55.271Z,50.00
2022-10-07T15:27:27.536Z,49.81
2022-10-07T15:29:58.380Z,49.81
2022-10-07T15:32:31.339Z,49.96
2022-10-07T15:35:01.820Z,50.70
2022-10-07T15:37:33.513Z,50.47
2022-10-07T15:40:05.631Z,50.90
2022-10-07T15:42:36.035Z,50.97
2022-10-07T15:45:07.559Z,51.17
2022-10-07T15:47:38.896Z,51.58
2022-10-07T15:50:09.746Z,51.97
2022-10-07T15:52:40.137Z,52.43
2022-10-07T15:55:10.652Z,53.00
2022-10-07T15:57:41.325Z,52.88
2022-10-07T16:00:12.910Z,52.84
2022-10-07T16:02:44.073Z,53.04
2022-10-07T16:05:14.914Z,52.98
2022-10-07T16:07:45.317Z,53.01
2022-10-07T16:10:15.720Z,53.39
2022-10-07T16:12:46.300Z,54.39
2022-10-07T16:15:16.977Z,54.64
2022-10-07T16:17:47.458Z,56.40
2022-10-07T16:20:18.495Z,55.24
2022-10-07T16:22:49.246Z,57.00
2022-10-07T16:25:19.760Z,56.40
2022-10-07T16:28:08.015Z,56.11
2022-10-07T16:30:41.099Z,58.06
2022-10-07T16:33:11.514Z,58.61
2022-10-07T16:35:42.392Z,60.11
2022-10-07T16:38:12.699Z,60.08
2022-10-07T16:40:46.128Z,59.58
2022-10-07T16:43:17.103Z,60.50
2022-10-07T16:45:47.675Z,60.17
2022-10-07T16:48:18.153Z,60.73
2022-10-07T16:50:49.500Z,58.89
2022-10-07T16:53:21.666Z,59.51
2022-10-07T16:55:51.979Z,60.82
2022-10-07T16:58:24.233Z,62.10
2022-10-07T17:00:57.654Z,63.32
2022-10-07T17:03:28.084Z,63.62
2022-10-07T17:05:59.335Z,64.40
2022-10-07T17:08:31.294Z,64.88
2022-10-07T17:11:02.390Z,65.17
2022-10-07T17:13:34.381Z,65.36
2022-10-07T17:16:05.787Z,65.86
2022-10-07T17:18:36.138Z,66.35
2022-10-07T17:21:06.520Z,65.72
2022-10-07T17:23:36.909Z,66.11
2022-10-07T17:26:10.769Z,66.35
2022-10-07T17:28:41.210Z,66.73
2022-10-07T17:31:14.672Z,67.20
2022-10-07T17:33:45.782Z,67.26
2022-10-07T17:36:16.146Z,67.70
2022-10-07T17:38:46.477Z,67.61
2022-10-07T17:41:25.475Z,67.99
2022-10-07T17:43:57.668Z,68.10
2022-10-07T17:46:33.319Z,68.20
2022-10-07T17:49:05.072Z,68.57
2022-10-07T17:51:36.981Z,68.60
2022-10-07T17:54:07.748Z,68.90
2022-10-07T17:56:38.119Z,68.85
2022-10-07T17:59:08.483Z,68.90
2022-10-07T18:01:38.836Z,68.79
2022-10-07T18:04:13.328Z,69.30
2022-10-07T18:06:43.793Z,69.33
2022-10-07T18:09:18.433Z,69.40
2022-10-07T18:12:06.867Z,69.72
2022-10-07T18:14:55.097Z,69.61
2022-10-07T18:17:25.484Z,69.86
2022-10-07T18:19:56.648Z,70.27
2022-10-07T18:22:27.094Z,69.79
2022-10-07T18:24:58.533Z,67.58
2022-10-07T18:27:30.053Z,66.46
2022-10-07T18:30:01.347Z,68.93
2022-10-07T18:32:31.907Z,67.23
2022-10-07T18:35:02.239Z,68.84
2022-10-07T18:37:32.949Z,69.41
2022-10-07T18:40:03.393Z,68.86
2022-10-07T18:42:37.185Z,68.89
2022-10-07T18:45:08.376Z,68.48
2022-10-07T18:47:38.766Z,67.75
2022-10-07T18:50:09.534Z,68.81
2022-10-07T18:52:39.890Z,69.48
2022-10-07T18:55:10.431Z,69.89
2022-10-07T18:57:40.680Z,70.64
2022-10-07T19:00:11.876Z,69.29
2022-10-07T19:02:43.765Z,68.52
2022-10-07T19:05:14.153Z,69.74
2022-10-07T19:07:44.792Z,70.38
2022-10-07T19:10:15.674Z,70.59
2022-10-07T19:12:47.594Z,71.09
2022-10-07T19:15:17.977Z,69.43
2022-10-07T19:17:48.784Z,69.42
2022-10-07T19:20:19.473Z,69.92
2022-10-07T19:22:49.848Z,71.23
2022-10-07T19:25:21.839Z,71.78
2022-10-07T19:27:52.241Z,70.33
2022-10-07T19:30:23.044Z,70.67
2022-10-07T19:32:53.366Z,71.26
2022-10-07T19:35:23.760Z,69.40
2022-10-07T19:37:54.146Z,69.27
2022-10-07T19:40:24.535Z,70.27
2022-10-07T19:42:54.943Z,69.86
2022-10-07T19:45:25.403Z,69.56
2022-10-07T19:47:56.310Z,69.64
2022-10-07T19:50:26.701Z,69.66
2022-10-07T19:52:57.330Z,69.99
2022-10-07T19:55:29.517Z,70.28
2022-10-07T19:58:02.022Z,71.45
2022-10-07T20:00:32.385Z,71.05
2022-10-07T20:03:02.778Z,71.36
2022-10-07T20:05:33.192Z,70.99
2022-10-07T20:08:06.853Z,71.92
2022-10-07T20:10:36.982Z,72.21
2022-10-07T20:13:07.285Z,71.25
2022-10-07T20:15:37.605Z,72.55
2022-10-07T20:18:08.947Z,72.84
2022-10-07T20:20:40.031Z,72.62
2022-10-07T20:23:10.428Z,73.45
2022-10-07T20:25:40.748Z,73.42
2022-10-07T20:28:11.155Z,74.04
2022-10-07T20:30:41.604Z,73.62
2022-10-07T20:33:12.865Z,73.88
2022-10-07T20:35:43.152Z,74.32
2022-10-07T20:38:13.459Z,73.98
2022-10-07T20:41:01.725Z,74.10
2022-10-07T20:43:32.365Z,73.02
2022-10-07T20:46:02.841Z,73.93
2022-10-07T20:48:33.728Z,74.35
2022-10-07T20:51:09.601Z,74.53
2022-10-07T20:53:40.004Z,74.66
2022-10-07T20:56:10.369Z,75.22
2022-10-07T20:58:40.730Z,75.20
2022-10-07T21:01:11.639Z,75.48
2022-10-07T21:03:42.182Z,75.53
2022-10-07T21:06:13.025Z,75.77
2022-10-07T21:08:43.622Z,75.68
2022-10-07T21:11:14.963Z,75.99
2022-10-07T21:13:45.369Z,76.30
2022-10-07T21:16:16.871Z,76.22
2022-10-07T21:18:47.630Z,76.27
2022-10-07T21:21:18.729Z,75.35
2022-10-07T21:23:52.840Z,75.37
2022-10-07T21:26:23.516Z,75.28
2022-10-07T21:28:54.003Z,76.12
2022-10-07T21:31:25.382Z,75.41
2022-10-07T21:33:55.798Z,75.41
2022-10-07T21:36:27.033Z,76.03
2022-10-07T21:39:00.852Z,76.41
2022-10-07T21:41:38.321Z,75.05
2022-10-07T21:44:11.498Z,75.01
2022-10-07T21:46:44.287Z,75.48
2022-10-07T21:49:15.857Z,75.78
2022-10-07T21:51:46.283Z,75.73
2022-10-07T21:54:16.732Z,75.32
2022-10-07T21:56:47.611Z,75.59
2022-10-07T21:59:18.274Z,75.93
2022-10-07T22:01:48.602Z,76.38
2022-10-07T22:04:20.239Z,75.65
2022-10-07T22:07:08.661Z,76.22
2022-10-07T22:09:39.055Z,76.36
2022-10-07T22:12:09.548Z,76.57
2022-10-07T22:14:39.940Z,76.49
2022-10-07T22:17:10.353Z,76.52
2022-10-07T22:19:41.309Z,77.33
2022-10-07T22:22:12.949Z,77.22
2022-10-07T22:24:43.382Z,77.37
2022-10-07T22:27:13.703Z,76.96
2022-10-07T22:29:44.088Z,77.54
2022-10-07T22:32:14.653Z,77.87
2022-10-07T22:35:02.890Z,77.55
2022-10-07T22:37:33.377Z,77.86
2022-10-07T22:40:03.836Z,77.41
2022-10-07T22:42:35.919Z,77.15
2022-10-07T22:45:07.291Z,76.63
2022-10-07T22:47:37.998Z,76.72
2022-10-07T22:50:09.119Z,76.89
2022-10-07T22:52:39.352Z,76.90
2022-10-07T22:55:09.896Z,77.33
2022-10-07T22:57:40.251Z,77.85
2022-10-07T23:00:11.977Z,77.88
2022-10-07T23:02:44.180Z,77.68
2022-10-07T23:05:15.056Z,77.82
2022-10-07T23:07:45.452Z,77.55
2022-10-07T23:10:15.842Z,77.20
2022-10-07T23:12:46.797Z,77.07
2022-10-07T23:15:19.096Z,77.22
2022-10-07T23:17:49.462Z,77.30
2022-10-07T23:20:19.790Z,77.58
2022-10-07T23:22:50.181Z,77.68
2022-10-07T23:25:20.586Z,77.80
2022-10-07T23:27:51.087Z,77.92
2022-10-07T23:30:24.697Z,78.25
2022-10-07T23:32:55.381Z,78.21
2022-10-07T23:35:25.654Z,78.26
2022-10-07T23:37:57.300Z,78.39
2022-10-07T23:40:27.754Z,79.11
2022-10-07T23:42:58.142Z,79.26
2022-10-07T23:45:28.744Z,79.41
2022-10-07T23:47:59.113Z,79.55
2022-10-07T23:50:29.624Z,79.67
2022-10-07T23:53:00.134Z,79.91
2022-10-07T23:55:30.574Z,80.08
2022-10-07T23:58:00.983Z,80.00
